sensor_id;sensor_type;location;lat;lon;timestamp;temperature;humidity
21255;DHT22;10785;50.674;17.954;2022-09-03T00:00:10;13.30;91.10
21255;DHT22;10785;50.674;17.954;2022-09-03T00:02:42;13.20;91.50
21255;DHT22;10785;50.674;17.954;2022-09-03T00:05:17;13.20;92.00
21255;DHT22;10785;50.674;17.954;2022-09-03T00:07:53;13.20;92.30
21255;DHT22;10785;50.674;17.954;2022-09-03T00:10:28;13.10;92.70
21255;DHT22;10785;50.674;17.954;2022-09-03T00:13:02;13.00;93.20
21255;DHT22;10785;50.674;17.954;2022-09-03T00:15:33;13.00;92.90
21255;DHT22;10785;50.674;17.954;2022-09-03T00:18:05;13.00;93.80
21255;DHT22;10785;50.674;17.954;2022-09-03T00:20:39;12.90;93.60
21255;DHT22;10785;50.674;17.954;2022-09-03T00:23:11;12.90;93.60
21255;DHT22;10785;50.674;17.954;2022-09-03T00:25:46;12.90;93.90
21255;DHT22;10785;50.674;17.954;2022-09-03T00:28:18;12.90;94.10
21255;DHT22;10785;50.674;17.954;2022-09-03T00:30:55;12.90;94.30
21255;DHT22;10785;50.674;17.954;2022-09-03T00:33:29;12.80;94.20
21255;DHT22;10785;50.674;17.954;2022-09-03T00:36:05;12.80;94.30
21255;DHT22;10785;50.674;17.954;2022-09-03T00:38:37;12.80;94.10
21255;DHT22;10785;50.674;17.954;2022-09-03T00:41:16;12.80;94.40
21255;DHT22;10785;50.674;17.954;2022-09-03T00:44:02;12.70;94.50
21255;DHT22;10785;50.674;17.954;2022-09-03T00:46:40;12.70;94.30
21255;DHT22;10785;50.674;17.954;2022-09-03T00:49:28;12.70;94.30
21255;DHT22;10785;50.674;17.954;2022-09-03T00:52:06;12.70;94.30
21255;DHT22;10785;50.674;17.954;2022-09-03T00:54:44;12.70;94.20
21255;DHT22;10785;50.674;17.954;2022-09-03T00:57:27;12.70;94.40
21255;DHT22;10785;50.674;17.954;2022-09-03T01:00:04;12.60;94.50
21255;DHT22;10785;50.674;17.954;2022-09-03T01:02:43;12.60;94.70
21255;DHT22;10785;50.674;17.954;2022-09-03T01:05:30;12.60;95.10
21255;DHT22;10785;50.674;17.954;2022-09-03T01:08:13;12.50;95.40
21255;DHT22;10785;50.674;17.954;2022-09-03T01:10:51;12.50;95.80
21255;DHT22;10785;50.674;17.954;2022-09-03T01:13:31;12.40;96.00
21255;DHT22;10785;50.674;17.954;2022-09-03T01:16:08;12.50;96.50
21255;DHT22;10785;50.674;17.954;2022-09-03T01:18:48;12.30;97.00
21255;DHT22;10785;50.674;17.954;2022-09-03T01:21:33;12.30;97.50
21255;DHT22;10785;50.674;17.954;2022-09-03T01:24:27;12.20;97.80
21255;DHT22;10785;50.674;17.954;2022-09-03T01:27:10;12.20;98.30
21255;DHT22;10785;50.674;17.954;2022-09-03T01:29:50;12.20;98.70
21255;DHT22;10785;50.674;17.954;2022-09-03T01:32:26;12.10;99.00
21255;DHT22;10785;50.674;17.954;2022-09-03T01:35:02;12.10;99.40
21255;DHT22;10785;50.674;17.954;2022-09-03T01:37:40;12.00;99.90
21255;DHT22;10785;50.674;17.954;2022-09-03T01:40:17;12.00;99.90
21255;DHT22;10785;50.674;17.954;2022-09-03T01:43:07;11.90;99.90
21255;DHT22;10785;50.674;17.954;2022-09-03T01:45:49;11.90;99.90
21255;DHT22;10785;50.674;17.954;2022-09-03T01:48:31;11.80;99.90
21255;DHT22;10785;50.674;17.954;2022-09-03T01:51:10;11.80;99.90
21255;DHT22;10785;50.674;17.954;2022-09-03T01:56:40;11.80;99.90
21255;DHT22;10785;50.674;17.954;2022-09-03T01:59:16;11.80;99.90
21255;DHT22;10785;50.674;17.954;2022-09-03T02:01:54;11.80;99.90
21255;DHT22;10785;50.674;17.954;2022-09-03T02:04:26;11.70;99.90
21255;DHT22;10785;50.674;17.954;2022-09-03T02:06:56;11.70;99.90
21255;DHT22;10785;50.674;17.954;2022-09-03T02:09:27;11.70;99.90
21255;DHT22;10785;50.674;17.954;2022-09-03T02:12:04;11.60;99.90
21255;DHT22;10785;50.674;17.954;2022-09-03T02:14:34;11.60;99.90
21255;DHT22;10785;50.674;17.954;2022-09-03T02:17:06;11.60;99.90
21255;DHT22;10785;50.674;17.954;2022-09-03T02:19:35;11.50;99.90
21255;DHT22;10785;50.674;17.954;2022-09-03T02:22:04;11.50;99.90
21255;DHT22;10785;50.674;17.954;2022-09-03T02:24:33;11.50;99.90
21255;DHT22;10785;50.674;17.954;2022-09-03T02:27:02;11.40;99.90
21255;DHT22;10785;50.674;17.954;2022-09-03T02:29:31;11.40;99.90
21255;DHT22;10785;50.674;17.954;2022-09-03T02:32:00;11.40;99.90
21255;DHT22;10785;50.674;17.954;2022-09-03T02:34:30;11.40;99.90
21255;DHT22;10785;50.674;17.954;2022-09-03T02:36:58;11.50;99.90
21255;DHT22;10785;50.674;17.954;2022-09-03T02:39:27;11.50;99.90
21255;DHT22;10785;50.674;17.954;2022-09-03T02:41:56;11.40;99.90
21255;DHT22;10785;50.674;17.954;2022-09-03T02:44:28;11.30;99.90
21255;DHT22;10785;50.674;17.954;2022-09-03T02:46:59;11.30;99.90
21255;DHT22;10785;50.674;17.954;2022-09-03T02:49:30;11.30;99.90
21255;DHT22;10785;50.674;17.954;2022-09-03T02:52:00;11.30;99.90
21255;DHT22;10785;50.674;17.954;2022-09-03T02:54:32;11.30;99.90
21255;DHT22;10785;50.674;17.954;2022-09-03T02:57:03;11.30;99.90
21255;DHT22;10785;50.674;17.954;2022-09-03T02:59:32;11.20;99.90
21255;DHT22;10785;50.674;17.954;2022-09-03T03:02:00;11.20;99.90
21255;DHT22;10785;50.674;17.954;2022-09-03T03:04:32;11.20;99.90
21255;DHT22;10785;50.674;17.954;2022-09-03T03:07:01;11.20;99.90
21255;DHT22;10785;50.674;17.954;2022-09-03T03:09:29;11.10;99.90
21255;DHT22;10785;50.674;17.954;2022-09-03T03:11:58;11.00;99.90
21255;DHT22;10785;50.674;17.954;2022-09-03T03:14:27;11.00;99.90
21255;DHT22;10785;50.674;17.954;2022-09-03T03:16:55;11.00;99.90
21255;DHT22;10785;50.674;17.954;2022-09-03T03:19:24;11.00;99.90
21255;DHT22;10785;50.674;17.954;2022-09-03T03:21:54;11.00;99.90
21255;DHT22;10785;50.674;17.954;2022-09-03T03:24:22;10.90;99.90
21255;DHT22;10785;50.674;17.954;2022-09-03T03:26:54;10.90;99.90
21255;DHT22;10785;50.674;17.954;2022-09-03T03:29:24;10.90;99.90
21255;DHT22;10785;50.674;17.954;2022-09-03T03:31:52;10.90;99.90
21255;DHT22;10785;50.674;17.954;2022-09-03T03:34:21;10.90;99.90
21255;DHT22;10785;50.674;17.954;2022-09-03T03:36:50;11.00;99.90
21255;DHT22;10785;50.674;17.954;2022-09-03T03:39:19;11.00;99.90
21255;DHT22;10785;50.674;17.954;2022-09-03T03:41:49;11.00;99.90
21255;DHT22;10785;50.674;17.954;2022-09-03T03:44:18;11.00;99.90
21255;DHT22;10785;50.674;17.954;2022-09-03T03:46:47;10.90;99.90
21255;DHT22;10785;50.674;17.954;2022-09-03T03:49:15;11.00;99.90
21255;DHT22;10785;50.674;17.954;2022-09-03T03:51:44;10.90;99.90
21255;DHT22;10785;50.674;17.954;2022-09-03T03:54:12;10.90;99.90
21255;DHT22;10785;50.674;17.954;2022-09-03T03:56:45;10.90;99.90
21255;DHT22;10785;50.674;17.954;2022-09-03T03:59:22;10.90;99.90
21255;DHT22;10785;50.674;17.954;2022-09-03T04:01:50;10.90;99.90
21255;DHT22;10785;50.674;17.954;2022-09-03T04:04:21;10.80;99.90
21255;DHT22;10785;50.674;17.954;2022-09-03T04:06:50;11.00;99.90
21255;DHT22;10785;50.674;17.954;2022-09-03T04:09:18;10.70;99.90
21255;DHT22;10785;50.674;17.954;2022-09-03T04:11:48;10.80;99.90
21255;DHT22;10785;50.674;17.954;2022-09-03T04:14:17;10.70;99.90
21255;DHT22;10785;50.674;17.954;2022-09-03T04:16:46;10.70;99.90
21255;DHT22;10785;50.674;17.954;2022-09-03T04:19:14;10.70;99.90
21255;DHT22;10785;50.674;17.954;2022-09-03T04:21:43;10.80;99.90
21255;DHT22;10785;50.674;17.954;2022-09-03T04:24:12;11.10;99.90
21255;DHT22;10785;50.674;17.954;2022-09-03T04:26:40;11.40;99.90
21255;DHT22;10785;50.674;17.954;2022-09-03T04:29:10;11.30;99.90
21255;DHT22;10785;50.674;17.954;2022-09-03T04:31:39;11.30;99.90
21255;DHT22;10785;50.674;17.954;2022-09-03T04:34:29;11.50;99.90
21255;DHT22;10785;50.674;17.954;2022-09-03T04:36:57;12.10;99.90
21255;DHT22;10785;50.674;17.954;2022-09-03T04:39:26;12.70;99.90
21255;DHT22;10785;50.674;17.954;2022-09-03T04:41:55;13.40;99.90
21255;DHT22;10785;50.674;17.954;2022-09-03T04:44:27;14.30;98.50
21255;DHT22;10785;50.674;17.954;2022-09-03T04:46:56;15.00;95.00
21255;DHT22;10785;50.674;17.954;2022-09-03T04:49:24;15.30;93.60
21255;DHT22;10785;50.674;17.954;2022-09-03T04:51:53;15.70;90.10
21255;DHT22;10785;50.674;17.954;2022-09-03T04:54:21;16.30;84.20
21255;DHT22;10785;50.674;17.954;2022-09-03T04:56:55;16.50;81.50
21255;DHT22;10785;50.674;17.954;2022-09-03T04:59:23;16.60;80.30
21255;DHT22;10785;50.674;17.954;2022-09-03T05:01:53;17.10;73.60
21255;DHT22;10785;50.674;17.954;2022-09-03T05:04:23;17.50;69.50
21255;DHT22;10785;50.674;17.954;2022-09-03T05:06:51;18.00;65.50
21255;DHT22;10785;50.674;17.954;2022-09-03T05:09:20;18.10;61.60
21255;DHT22;10785;50.674;17.954;2022-09-03T05:11:48;18.10;61.00
21255;DHT22;10785;50.674;17.954;2022-09-03T05:14:17;18.50;56.80
21255;DHT22;10785;50.674;17.954;2022-09-03T05:16:45;18.60;56.80
21255;DHT22;10785;50.674;17.954;2022-09-03T05:19:20;19.10;51.20
21255;DHT22;10785;50.674;17.954;2022-09-03T05:21:49;19.70;47.90
21255;DHT22;10785;50.674;17.954;2022-09-03T05:24:17;20.10;46.10
21255;DHT22;10785;50.674;17.954;2022-09-03T05:26:46;19.90;44.40
21255;DHT22;10785;50.674;17.954;2022-09-03T05:29:15;20.40;41.50
21255;DHT22;10785;50.674;17.954;2022-09-03T05:31:43;19.80;41.90
21255;DHT22;10785;50.674;17.954;2022-09-03T05:34:12;19.90;40.90
21255;DHT22;10785;50.674;17.954;2022-09-03T05:36:46;20.30;39.20
21255;DHT22;10785;50.674;17.954;2022-09-03T05:39:16;20.00;39.00
21255;DHT22;10785;50.674;17.954;2022-09-03T05:41:44;20.30;38.00
21255;DHT22;10785;50.674;17.954;2022-09-03T05:44:15;20.60;37.20
21255;DHT22;10785;50.674;17.954;2022-09-03T05:46:44;21.00;34.80
21255;DHT22;10785;50.674;17.954;2022-09-03T05:49:12;22.60;30.20
21255;DHT22;10785;50.674;17.954;2022-09-03T05:51:41;23.30;28.20
21255;DHT22;10785;50.674;17.954;2022-09-03T05:54:11;23.50;26.00
21255;DHT22;10785;50.674;17.954;2022-09-03T05:56:39;24.30;22.50
21255;DHT22;10785;50.674;17.954;2022-09-03T05:59:09;23.00;23.70
21255;DHT22;10785;50.674;17.954;2022-09-03T06:01:41;22.40;23.90
21255;DHT22;10785;50.674;17.954;2022-09-03T06:04:18;23.20;23.70
21255;DHT22;10785;50.674;17.954;2022-09-03T06:06:47;24.60;20.40
21255;DHT22;10785;50.674;17.954;2022-09-03T06:09:18;23.60;20.90
21255;DHT22;10785;50.674;17.954;2022-09-03T06:11:49;22.90;22.20
21255;DHT22;10785;50.674;17.954;2022-09-03T06:14:20;22.50;23.10
21255;DHT22;10785;50.674;17.954;2022-09-03T06:16:50;21.90;23.70
21255;DHT22;10785;50.674;17.954;2022-09-03T06:19:19;21.10;25.00
21255;DHT22;10785;50.674;17.954;2022-09-03T06:21:48;19.40;29.30
21255;DHT22;10785;50.674;17.954;2022-09-03T06:24:19;18.20;34.10
21255;DHT22;10785;50.674;17.954;2022-09-03T06:26:54;17.60;39.30
21255;DHT22;10785;50.674;17.954;2022-09-03T06:29:24;16.90;44.70
21255;DHT22;10785;50.674;17.954;2022-09-03T06:31:54;16.50;49.40
21255;DHT22;10785;50.674;17.954;2022-09-03T06:34:23;16.50;53.10
21255;DHT22;10785;50.674;17.954;2022-09-03T06:36:53;17.00;51.80
21255;DHT22;10785;50.674;17.954;2022-09-03T06:39:23;17.00;51.50
21255;DHT22;10785;50.674;17.954;2022-09-03T06:41:53;16.90;52.00
21255;DHT22;10785;50.674;17.954;2022-09-03T06:44:33;16.90;53.20
21255;DHT22;10785;50.674;17.954;2022-09-03T06:47:01;16.90;54.30
21255;DHT22;10785;50.674;17.954;2022-09-03T06:49:30;16.80;54.80
21255;DHT22;10785;50.674;17.954;2022-09-03T06:51:58;16.90;56.80
21255;DHT22;10785;50.674;17.954;2022-09-03T06:54:29;17.30;55.70
21255;DHT22;10785;50.674;17.954;2022-09-03T06:56:58;17.00;56.30
21255;DHT22;10785;50.674;17.954;2022-09-03T06:59:27;17.00;57.50
21255;DHT22;10785;50.674;17.954;2022-09-03T07:01:58;16.80;60.50
21255;DHT22;10785;50.674;17.954;2022-09-03T07:04:27;16.90;60.00
21255;DHT22;10785;50.674;17.954;2022-09-03T07:06:56;17.20;62.00
21255;DHT22;10785;50.674;17.954;2022-09-03T07:09:25;17.60;59.20
21255;DHT22;10785;50.674;17.954;2022-09-03T07:11:55;18.20;58.90
21255;DHT22;10785;50.674;17.954;2022-09-03T07:14:24;18.60;57.80
21255;DHT22;10785;50.674;17.954;2022-09-03T07:16:53;19.10;53.40
21255;DHT22;10785;50.674;17.954;2022-09-03T07:19:21;18.80;53.80
21255;DHT22;10785;50.674;17.954;2022-09-03T07:21:50;18.90;54.10
21255;DHT22;10785;50.674;17.954;2022-09-03T07:24:19;19.20;53.60
21255;DHT22;10785;50.674;17.954;2022-09-03T07:26:50;19.10;54.20
21255;DHT22;10785;50.674;17.954;2022-09-03T07:29:20;18.90;53.90
21255;DHT22;10785;50.674;17.954;2022-09-03T07:31:49;18.70;54.50
21255;DHT22;10785;50.674;17.954;2022-09-03T07:34:20;18.60;55.50
21255;DHT22;10785;50.674;17.954;2022-09-03T07:36:53;18.40;57.50
21255;DHT22;10785;50.674;17.954;2022-09-03T07:39:21;18.30;58.60
21255;DHT22;10785;50.674;17.954;2022-09-03T07:41:50;18.70;59.00
21255;DHT22;10785;50.674;17.954;2022-09-03T07:44:20;18.80;58.20
21255;DHT22;10785;50.674;17.954;2022-09-03T07:46:50;18.80;58.30
21255;DHT22;10785;50.674;17.954;2022-09-03T07:49:19;18.90;59.80
21255;DHT22;10785;50.674;17.954;2022-09-03T07:51:49;18.90;58.80
21255;DHT22;10785;50.674;17.954;2022-09-03T07:54:20;19.10;58.80
21255;DHT22;10785;50.674;17.954;2022-09-03T07:56:50;18.90;59.90
21255;DHT22;10785;50.674;17.954;2022-09-03T07:59:20;19.20;60.20
21255;DHT22;10785;50.674;17.954;2022-09-03T08:01:50;19.30;59.80
21255;DHT22;10785;50.674;17.954;2022-09-03T08:04:19;19.20;58.50
21255;DHT22;10785;50.674;17.954;2022-09-03T08:06:51;19.10;59.60
21255;DHT22;10785;50.674;17.954;2022-09-03T08:09:22;19.10;59.50
21255;DHT22;10785;50.674;17.954;2022-09-03T08:11:51;18.90;59.90
21255;DHT22;10785;50.674;17.954;2022-09-03T08:14:21;18.80;60.60
21255;DHT22;10785;50.674;17.954;2022-09-03T08:16:49;18.60;63.80
21255;DHT22;10785;50.674;17.954;2022-09-03T08:19:18;18.80;63.00
21255;DHT22;10785;50.674;17.954;2022-09-03T08:21:47;18.80;64.80
21255;DHT22;10785;50.674;17.954;2022-09-03T08:24:17;19.00;64.70
21255;DHT22;10785;50.674;17.954;2022-09-03T08:26:48;19.10;64.80
21255;DHT22;10785;50.674;17.954;2022-09-03T08:29:20;18.80;63.90
21255;DHT22;10785;50.674;17.954;2022-09-03T08:31:49;18.80;65.90
21255;DHT22;10785;50.674;17.954;2022-09-03T08:34:18;18.80;66.60
21255;DHT22;10785;50.674;17.954;2022-09-03T08:36:47;19.00;65.50
21255;DHT22;10785;50.674;17.954;2022-09-03T08:39:17;19.10;63.70
21255;DHT22;10785;50.674;17.954;2022-09-03T08:42:12;19.10;63.30
21255;DHT22;10785;50.674;17.954;2022-09-03T08:44:49;19.30;62.00
21255;DHT22;10785;50.674;17.954;2022-09-03T08:47:21;19.30;62.50
21255;DHT22;10785;50.674;17.954;2022-09-03T08:49:54;19.30;60.20
21255;DHT22;10785;50.674;17.954;2022-09-03T08:52:28;19.40;62.80
21255;DHT22;10785;50.674;17.954;2022-09-03T08:55:06;19.30;64.30
21255;DHT22;10785;50.674;17.954;2022-09-03T08:57:42;19.40;64.30
21255;DHT22;10785;50.674;17.954;2022-09-03T09:00:14;19.50;65.20
21255;DHT22;10785;50.674;17.954;2022-09-03T09:03:00;19.60;63.30
21255;DHT22;10785;50.674;17.954;2022-09-03T09:05:43;19.50;62.00
21255;DHT22;10785;50.674;17.954;2022-09-03T09:08:20;19.70;61.70
21255;DHT22;10785;50.674;17.954;2022-09-03T09:10:57;19.80;61.10
21255;DHT22;10785;50.674;17.954;2022-09-03T09:13:36;20.00;59.70
21255;DHT22;10785;50.674;17.954;2022-09-03T09:16:14;20.00;57.90
21255;DHT22;10785;50.674;17.954;2022-09-03T09:18:53;20.00;58.00
21255;DHT22;10785;50.674;17.954;2022-09-03T09:21:27;20.00;56.50
21255;DHT22;10785;50.674;17.954;2022-09-03T09:24:01;19.90;56.30
21255;DHT22;10785;50.674;17.954;2022-09-03T09:26:32;19.90;55.70
21255;DHT22;10785;50.674;17.954;2022-09-03T09:29:05;19.70;55.10
21255;DHT22;10785;50.674;17.954;2022-09-03T09:31:39;19.70;56.80
21255;DHT22;10785;50.674;17.954;2022-09-03T09:34:11;19.80;56.70
21255;DHT22;10785;50.674;17.954;2022-09-03T09:36:45;19.80;55.70
21255;DHT22;10785;50.674;17.954;2022-09-03T09:39:16;19.80;56.00
21255;DHT22;10785;50.674;17.954;2022-09-03T09:41:56;19.80;55.10
21255;DHT22;10785;50.674;17.954;2022-09-03T09:44:29;19.90;56.10
21255;DHT22;10785;50.674;17.954;2022-09-03T09:47:04;20.30;56.50
21255;DHT22;10785;50.674;17.954;2022-09-03T09:49:42;20.70;55.20
21255;DHT22;10785;50.674;17.954;2022-09-03T09:52:18;20.80;54.20
21255;DHT22;10785;50.674;17.954;2022-09-03T09:54:53;21.00;54.20
21255;DHT22;10785;50.674;17.954;2022-09-03T09:57:33;21.00;52.70
21255;DHT22;10785;50.674;17.954;2022-09-03T10:00:05;21.00;51.80
21255;DHT22;10785;50.674;17.954;2022-09-03T10:02:47;21.20;51.50
21255;DHT22;10785;50.674;17.954;2022-09-03T10:05:21;20.80;47.20
21255;DHT22;10785;50.674;17.954;2022-09-03T10:07:55;20.60;47.20
21255;DHT22;10785;50.674;17.954;2022-09-03T10:10:29;20.50;47.10
21255;DHT22;10785;50.674;17.954;2022-09-03T10:13:09;20.10;47.40
21255;DHT22;10785;50.674;17.954;2022-09-03T10:15:46;20.50;47.50
21255;DHT22;10785;50.674;17.954;2022-09-03T10:18:28;20.60;47.60
21255;DHT22;10785;50.674;17.954;2022-09-03T10:21:04;21.00;47.50
21255;DHT22;10785;50.674;17.954;2022-09-03T10:23:47;21.20;46.00
21255;DHT22;10785;50.674;17.954;2022-09-03T10:26:20;21.20;46.70
21255;DHT22;10785;50.674;17.954;2022-09-03T10:29:00;21.40;45.40
21255;DHT22;10785;50.674;17.954;2022-09-03T10:31:38;21.40;43.10
21255;DHT22;10785;50.674;17.954;2022-09-03T10:34:15;21.30;44.60
21255;DHT22;10785;50.674;17.954;2022-09-03T10:36:55;21.10;44.40
21255;DHT22;10785;50.674;17.954;2022-09-03T10:39:36;21.30;44.20
21255;DHT22;10785;50.674;17.954;2022-09-03T10:42:20;21.40;44.70
21255;DHT22;10785;50.674;17.954;2022-09-03T10:45:00;21.50;43.80
21255;DHT22;10785;50.674;17.954;2022-09-03T10:47:42;21.50;41.80
21255;DHT22;10785;50.674;17.954;2022-09-03T10:50:21;20.90;42.70
21255;DHT22;10785;50.674;17.954;2022-09-03T10:53:06;20.70;43.80
21255;DHT22;10785;50.674;17.954;2022-09-03T10:55:45;20.90;44.50
21255;DHT22;10785;50.674;17.954;2022-09-03T10:58:28;21.30;43.30
21255;DHT22;10785;50.674;17.954;2022-09-03T11:01:03;21.30;42.10
21255;DHT22;10785;50.674;17.954;2022-09-03T11:03:43;21.00;43.20
21255;DHT22;10785;50.674;17.954;2022-09-03T11:06:21;20.90;43.70
21255;DHT22;10785;50.674;17.954;2022-09-03T11:08:55;20.90;44.80
21255;DHT22;10785;50.674;17.954;2022-09-03T11:11:35;20.90;43.50
21255;DHT22;10785;50.674;17.954;2022-09-03T11:14:08;20.90;43.90
21255;DHT22;10785;50.674;17.954;2022-09-03T11:16:39;20.90;44.20
21255;DHT22;10785;50.674;17.954;2022-09-03T11:19:13;21.00;44.50
21255;DHT22;10785;50.674;17.954;2022-09-03T11:21:48;21.10;43.60
21255;DHT22;10785;50.674;17.954;2022-09-03T11:24:21;21.00;43.50
21255;DHT22;10785;50.674;17.954;2022-09-03T11:26:56;21.00;42.90
21255;DHT22;10785;50.674;17.954;2022-09-03T11:29:33;21.20;43.10
21255;DHT22;10785;50.674;17.954;2022-09-03T11:32:09;21.30;43.20
21255;DHT22;10785;50.674;17.954;2022-09-03T11:34:47;21.20;43.20
21255;DHT22;10785;50.674;17.954;2022-09-03T11:37:20;21.20;42.80
21255;DHT22;10785;50.674;17.954;2022-09-03T11:39:58;21.00;42.50
21255;DHT22;10785;50.674;17.954;2022-09-03T11:42:33;21.10;43.90
21255;DHT22;10785;50.674;17.954;2022-09-03T11:45:33;21.10;43.60
21255;DHT22;10785;50.674;17.954;2022-09-03T11:48:16;21.20;43.50
21255;DHT22;10785;50.674;17.954;2022-09-03T11:50:52;21.20;44.20
21255;DHT22;10785;50.674;17.954;2022-09-03T11:53:25;21.10;43.90
21255;DHT22;10785;50.674;17.954;2022-09-03T11:55:59;21.10;44.20
21255;DHT22;10785;50.674;17.954;2022-09-03T11:58:32;21.00;46.30
21255;DHT22;10785;50.674;17.954;2022-09-03T12:01:03;21.10;44.70
21255;DHT22;10785;50.674;17.954;2022-09-03T12:03:41;21.00;45.30
21255;DHT22;10785;50.674;17.954;2022-09-03T12:09:55;20.80;46.80
21255;DHT22;10785;50.674;17.954;2022-09-03T12:12:47;20.60;48.60
21255;DHT22;10785;50.674;17.954;2022-09-03T12:15:36;20.50;47.00
21255;DHT22;10785;50.674;17.954;2022-09-03T12:18:12;20.60;48.00
21255;DHT22;10785;50.674;17.954;2022-09-03T12:20:47;20.70;49.00
21255;DHT22;10785;50.674;17.954;2022-09-03T12:23:29;20.70;48.10
21255;DHT22;10785;50.674;17.954;2022-09-03T12:26:02;20.60;49.80
21255;DHT22;10785;50.674;17.954;2022-09-03T12:28:34;20.80;49.90
21255;DHT22;10785;50.674;17.954;2022-09-03T12:31:12;20.70;50.80
21255;DHT22;10785;50.674;17.954;2022-09-03T12:33:48;20.70;51.00
21255;DHT22;10785;50.674;17.954;2022-09-03T12:36:17;20.50;52.40
21255;DHT22;10785;50.674;17.954;2022-09-03T12:38:49;20.30;52.00
21255;DHT22;10785;50.674;17.954;2022-09-03T12:41:54;20.10;54.30
21255;DHT22;10785;50.674;17.954;2022-09-03T12:44:24;20.00;54.20
21255;DHT22;10785;50.674;17.954;2022-09-03T12:47:03;19.90;55.00
21255;DHT22;10785;50.674;17.954;2022-09-03T12:50:03;20.00;55.70
21255;DHT22;10785;50.674;17.954;2022-09-03T12:52:36;20.00;55.20
21255;DHT22;10785;50.674;17.954;2022-09-03T12:55:11;19.90;55.60
21255;DHT22;10785;50.674;17.954;2022-09-03T12:57:46;19.90;56.00
21255;DHT22;10785;50.674;17.954;2022-09-03T13:00:17;19.70;57.40
21255;DHT22;10785;50.674;17.954;2022-09-03T13:02:50;19.80;57.70
21255;DHT22;10785;50.674;17.954;2022-09-03T13:05:21;19.70;57.90
21255;DHT22;10785;50.674;17.954;2022-09-03T13:07:55;19.70;58.80
21255;DHT22;10785;50.674;17.954;2022-09-03T13:10:28;19.60;58.40
21255;DHT22;10785;50.674;17.954;2022-09-03T13:13:00;19.70;59.60
21255;DHT22;10785;50.674;17.954;2022-09-03T13:15:30;19.70;59.60
21255;DHT22;10785;50.674;17.954;2022-09-03T13:18:18;19.80;60.00
21255;DHT22;10785;50.674;17.954;2022-09-03T13:21:03;19.80;60.00
21255;DHT22;10785;50.674;17.954;2022-09-03T13:23:51;19.70;60.60
21255;DHT22;10785;50.674;17.954;2022-09-03T13:26:29;19.70;60.90
21255;DHT22;10785;50.674;17.954;2022-09-03T13:29:18;19.70;59.40
21255;DHT22;10785;50.674;17.954;2022-09-03T13:31:51;19.70;59.50
21255;DHT22;10785;50.674;17.954;2022-09-03T13:34:24;19.70;59.10
21255;DHT22;10785;50.674;17.954;2022-09-03T13:36:57;19.70;59.90
21255;DHT22;10785;50.674;17.954;2022-09-03T13:39:29;19.80;59.60
21255;DHT22;10785;50.674;17.954;2022-09-03T13:42:05;19.90;60.30
21255;DHT22;10785;50.674;17.954;2022-09-03T13:44:43;19.80;59.70
21255;DHT22;10785;50.674;17.954;2022-09-03T13:47:20;19.90;59.60
21255;DHT22;10785;50.674;17.954;2022-09-03T13:50:00;19.80;60.70
21255;DHT22;10785;50.674;17.954;2022-09-03T13:52:51;19.70;60.60
21255;DHT22;10785;50.674;17.954;2022-09-03T13:55:27;19.60;61.00
21255;DHT22;10785;50.674;17.954;2022-09-03T13:58:03;19.60;61.20
21255;DHT22;10785;50.674;17.954;2022-09-03T14:00:39;19.50;61.40
21255;DHT22;10785;50.674;17.954;2022-09-03T14:03:15;19.50;62.30
21255;DHT22;10785;50.674;17.954;2022-09-03T14:06:01;19.60;63.00
21255;DHT22;10785;50.674;17.954;2022-09-03T14:08:34;19.50;62.90
21255;DHT22;10785;50.674;17.954;2022-09-03T14:11:22;19.60;63.80
21255;DHT22;10785;50.674;17.954;2022-09-03T14:14:05;19.70;65.00
21255;DHT22;10785;50.674;17.954;2022-09-03T14:16:42;19.70;64.20
21255;DHT22;10785;50.674;17.954;2022-09-03T14:19:17;19.50;64.70
21255;DHT22;10785;50.674;17.954;2022-09-03T14:21:53;19.50;66.00
21255;DHT22;10785;50.674;17.954;2022-09-03T14:24:30;19.60;65.80
21255;DHT22;10785;50.674;17.954;2022-09-03T14:27:04;19.70;65.30
21255;DHT22;10785;50.674;17.954;2022-09-03T14:29:35;19.60;64.80
21255;DHT22;10785;50.674;17.954;2022-09-03T14:32:33;19.60;67.40
21255;DHT22;10785;50.674;17.954;2022-09-03T14:35:22;19.60;66.60
21255;DHT22;10785;50.674;17.954;2022-09-03T14:41:26;19.60;67.90
21255;DHT22;10785;50.674;17.954;2022-09-03T14:47:14;19.70;66.50
21255;DHT22;10785;50.674;17.954;2022-09-03T14:50:12;19.70;67.30
21255;DHT22;10785;50.674;17.954;2022-09-03T14:52:58;19.90;67.70
21255;DHT22;10785;50.674;17.954;2022-09-03T14:55:54;20.00;67.60
21255;DHT22;10785;50.674;17.954;2022-09-03T14:58:38;20.00;67.80
21255;DHT22;10785;50.674;17.954;2022-09-03T15:01:11;20.00;69.10
21255;DHT22;10785;50.674;17.954;2022-09-03T15:04:12;20.00;69.00
21255;DHT22;10785;50.674;17.954;2022-09-03T15:06:57;19.90;67.90
21255;DHT22;10785;50.674;17.954;2022-09-03T15:09:36;19.70;68.50
21255;DHT22;10785;50.674;17.954;2022-09-03T15:12:09;19.70;70.60
21255;DHT22;10785;50.674;17.954;2022-09-03T15:14:49;19.60;71.30
21255;DHT22;10785;50.674;17.954;2022-09-03T15:17:32;19.60;72.10
21255;DHT22;10785;50.674;17.954;2022-09-03T15:20:18;19.50;73.50
21255;DHT22;10785;50.674;17.954;2022-09-03T15:23:20;19.40;75.80
21255;DHT22;10785;50.674;17.954;2022-09-03T15:26:05;19.20;78.10
21255;DHT22;10785;50.674;17.954;2022-09-03T15:28:48;19.10;81.50
21255;DHT22;10785;50.674;17.954;2022-09-03T15:31:21;19.10;83.90
21255;DHT22;10785;50.674;17.954;2022-09-03T15:33:59;19.10;85.00
21255;DHT22;10785;50.674;17.954;2022-09-03T15:36:34;19.10;85.60
21255;DHT22;10785;50.674;17.954;2022-09-03T15:39:09;19.10;85.80
21255;DHT22;10785;50.674;17.954;2022-09-03T15:41:45;19.10;87.50
21255;DHT22;10785;50.674;17.954;2022-09-03T15:44:17;19.10;88.00
21255;DHT22;10785;50.674;17.954;2022-09-03T15:46:53;19.10;87.30
21255;DHT22;10785;50.674;17.954;2022-09-03T15:49:46;19.10;88.60
21255;DHT22;10785;50.674;17.954;2022-09-03T15:52:30;19.00;89.50
21255;DHT22;10785;50.674;17.954;2022-09-03T15:55:08;19.00;90.40
21255;DHT22;10785;50.674;17.954;2022-09-03T15:57:46;18.90;90.70
21255;DHT22;10785;50.674;17.954;2022-09-03T16:00:21;18.90;89.60
21255;DHT22;10785;50.674;17.954;2022-09-03T16:02:53;18.90;90.20
21255;DHT22;10785;50.674;17.954;2022-09-03T16:05:34;18.90;89.50
21255;DHT22;10785;50.674;17.954;2022-09-03T16:08:16;18.90;89.40
21255;DHT22;10785;50.674;17.954;2022-09-03T16:10:58;18.90;89.80
21255;DHT22;10785;50.674;17.954;2022-09-03T16:16:24;18.80;90.60